sensor_id;sensor_type;location;lat;lon;timestamp;P1;durP1;ratioP1;P2;durP2;ratioP2
14789;SDS011;7486;51.010;10.366;2023-06-14T00:01:06;4.72;;;2.70;;
14789;SDS011;7486;51.010;10.366;2023-06-14T00:03:52;2.50;;;2.30;;
14789;SDS011;7486;51.010;10.366;2023-06-14T00:06:37;3.17;;;2.50;;
14789;SDS011;7486;51.010;10.366;2023-06-14T00:09:23;3.00;;;2.70;;
14789;SDS011;7486;51.010;10.366;2023-06-14T00:12:08;3.80;;;2.38;;
14789;SDS011;7486;51.010;10.366;2023-06-14T00:14:54;3.90;;;2.55;;
14789;SDS011;7486;51.010;10.366;2023-06-14T00:17:40;2.92;;;2.63;;
14789;SDS011;7486;51.010;10.366;2023-06-14T00:20:25;3.10;;;2.50;;
14789;SDS011;7486;51.010;10.366;2023-06-14T00:23:11;5.15;;;2.50;;
14789;SDS011;7486;51.010;10.366;2023-06-14T00:25:57;3.15;;;2.33;;
14789;SDS011;7486;51.010;10.366;2023-06-14T00:28:42;3.92;;;2.50;;
14789;SDS011;7486;51.010;10.366;2023-06-14T00:31:28;2.80;;;2.30;;
14789;SDS011;7486;51.010;10.366;2023-06-14T00:34:14;2.53;;;2.33;;
14789;SDS011;7486;51.010;10.366;2023-06-14T00:36:59;2.65;;;2.30;;
14789;SDS011;7486;51.010;10.366;2023-06-14T00:39:45;3.30;;;2.45;;
14789;SDS011;7486;51.010;10.366;2023-06-14T00:42:31;2.70;;;2.35;;
14789;SDS011;7486;51.010;10.366;2023-06-14T00:45:16;4.68;;;2.47;;
14789;SDS011;7486;51.010;10.366;2023-06-14T00:48:02;3.35;;;2.35;;
14789;SDS011;7486;51.010;10.366;2023-06-14T00:50:49;3.45;;;2.33;;
14789;SDS011;7486;51.010;10.366;2023-06-14T00:53:36;3.60;;;2.60;;
14789;SDS011;7486;51.010;10.366;2023-06-14T00:56:21;4.03;;;2.65;;
14789;SDS011;7486;51.010;10.366;2023-06-14T00:59:08;3.03;;;2.50;;
14789;SDS011;7486;51.010;10.366;2023-06-14T01:01:54;3.88;;;2.80;;
14789;SDS011;7486;51.010;10.366;2023-06-14T01:04:40;2.92;;;2.63;;
14789;SDS011;7486;51.010;10.366;2023-06-14T01:07:46;3.80;;;2.70;;
14789;SDS011;7486;51.010;10.366;2023-06-14T01:13:43;2.50;;;2.30;;
14789;SDS011;7486;51.010;10.366;2023-06-14T01:16:32;3.22;;;2.40;;
14789;SDS011;7486;51.010;10.366;2023-06-14T01:19:17;3.60;;;2.70;;
14789;SDS011;7486;51.010;10.366;2023-06-14T01:22:03;3.05;;;2.70;;
14789;SDS011;7486;51.010;10.366;2023-06-14T01:24:49;2.88;;;2.58;;
14789;SDS011;7486;51.010;10.366;2023-06-14T01:27:36;3.85;;;2.70;;
14789;SDS011;7486;51.010;10.366;2023-06-14T01:30:21;4.53;;;2.60;;
14789;SDS011;7486;51.010;10.366;2023-06-14T01:33:08;3.65;;;2.55;;
14789;SDS011;7486;51.010;10.366;2023-06-14T01:35:53;3.58;;;2.58;;
14789;SDS011;7486;51.010;10.366;2023-06-14T01:38:41;3.92;;;2.80;;
14789;SDS011;7486;51.010;10.366;2023-06-14T01:41:29;4.63;;;2.70;;
14789;SDS011;7486;51.010;10.366;2023-06-14T01:44:16;4.00;;;2.80;;
14789;SDS011;7486;51.010;10.366;2023-06-14T01:47:04;2.97;;;2.42;;
14789;SDS011;7486;51.010;10.366;2023-06-14T01:49:50;2.78;;;2.20;;
14789;SDS011;7486;51.010;10.366;2023-06-14T01:52:36;4.47;;;2.63;;
14789;SDS011;7486;51.010;10.366;2023-06-14T01:55:22;2.90;;;2.30;;
14789;SDS011;7486;51.010;10.366;2023-06-14T01:58:08;3.67;;;2.63;;
14789;SDS011;7486;51.010;10.366;2023-06-14T02:00:55;3.10;;;2.80;;
14789;SDS011;7486;51.010;10.366;2023-06-14T02:03:41;4.53;;;2.30;;
14789;SDS011;7486;51.010;10.366;2023-06-14T02:06:26;3.50;;;2.50;;
14789;SDS011;7486;51.010;10.366;2023-06-14T02:09:12;2.90;;;2.50;;
14789;SDS011;7486;51.010;10.366;2023-06-14T02:11:57;3.03;;;2.72;;
14789;SDS011;7486;51.010;10.366;2023-06-14T02:14:44;3.35;;;2.90;;
14789;SDS011;7486;51.010;10.366;2023-06-14T02:17:30;3.33;;;2.63;;
14789;SDS011;7486;51.010;10.366;2023-06-14T02:20:15;8.32;;;2.60;;
14789;SDS011;7486;51.010;10.366;2023-06-14T02:23:02;3.45;;;2.88;;
14789;SDS011;7486;51.010;10.366;2023-06-14T02:25:49;3.22;;;2.67;;
14789;SDS011;7486;51.010;10.366;2023-06-14T02:28:35;3.95;;;2.60;;
14789;SDS011;7486;51.010;10.366;2023-06-14T02:31:20;2.47;;;2.20;;
14789;SDS011;7486;51.010;10.366;2023-06-14T02:34:06;3.10;;;2.53;;
14789;SDS011;7486;51.010;10.366;2023-06-14T02:36:51;4.93;;;2.42;;
14789;SDS011;7486;51.010;10.366;2023-06-14T02:39:37;3.15;;;2.28;;
14789;SDS011;7486;51.010;10.366;2023-06-14T02:42:23;2.85;;;2.35;;
14789;SDS011;7486;51.010;10.366;2023-06-14T02:45:09;2.50;;;2.30;;
14789;SDS011;7486;51.010;10.366;2023-06-14T02:47:54;2.53;;;2.13;;
14789;SDS011;7486;51.010;10.366;2023-06-14T02:50:40;3.95;;;2.40;;
14789;SDS011;7486;51.010;10.366;2023-06-14T02:53:25;3.13;;;2.58;;
14789;SDS011;7486;51.010;10.366;2023-06-14T02:56:11;3.83;;;2.50;;
14789;SDS011;7486;51.010;10.366;2023-06-14T02:58:57;3.22;;;2.53;;
14789;SDS011;7486;51.010;10.366;2023-06-14T03:01:43;4.03;;;2.47;;
14789;SDS011;7486;51.010;10.366;2023-06-14T03:04:31;2.75;;;2.40;;
14789;SDS011;7486;51.010;10.366;2023-06-14T03:07:17;2.55;;;2.35;;
14789;SDS011;7486;51.010;10.366;2023-06-14T03:10:03;2.75;;;2.20;;
14789;SDS011;7486;51.010;10.366;2023-06-14T03:12:48;2.40;;;2.20;;
14789;SDS011;7486;51.010;10.366;2023-06-14T03:15:35;2.88;;;2.38;;
14789;SDS011;7486;51.010;10.366;2023-06-14T03:18:21;2.85;;;2.13;;
14789;SDS011;7486;51.010;10.366;2023-06-14T03:21:10;2.95;;;2.20;;
14789;SDS011;7486;51.010;10.366;2023-06-14T03:23:59;2.60;;;2.40;;
14789;SDS011;7486;51.010;10.366;2023-06-14T03:26:45;3.30;;;2.50;;
14789;SDS011;7486;51.010;10.366;2023-06-14T03:29:32;3.85;;;2.30;;
14789;SDS011;7486;51.010;10.366;2023-06-14T03:32:18;2.45;;;2.22;;
14789;SDS011;7486;51.010;10.366;2023-06-14T03:35:04;3.53;;;2.38;;
14789;SDS011;7486;51.010;10.366;2023-06-14T03:37:51;4.03;;;2.20;;
14789;SDS011;7486;51.010;10.366;2023-06-14T03:40:36;2.50;;;2.30;;
14789;SDS011;7486;51.010;10.366;2023-06-14T03:43:24;2.33;;;2.13;;
14789;SDS011;7486;51.010;10.366;2023-06-14T03:46:11;3.25;;;2.15;;
14789;SDS011;7486;51.010;10.366;2023-06-14T03:48:57;2.08;;;1.95;;
14789;SDS011;7486;51.010;10.366;2023-06-14T03:51:43;3.70;;;2.10;;
14789;SDS011;7486;51.010;10.366;2023-06-14T03:54:29;2.35;;;2.03;;
14789;SDS011;7486;51.010;10.366;2023-06-14T03:57:36;2.45;;;2.05;;
14789;SDS011;7486;51.010;10.366;2023-06-14T04:00:26;3.08;;;2.03;;
14789;SDS011;7486;51.010;10.366;2023-06-14T04:03:11;3.25;;;1.92;;
14789;SDS011;7486;51.010;10.366;2023-06-14T04:05:57;3.70;;;2.15;;
14789;SDS011;7486;51.010;10.366;2023-06-14T04:08:42;2.58;;;1.98;;
14789;SDS011;7486;51.010;10.366;2023-06-14T04:11:28;2.17;;;1.85;;
14789;SDS011;7486;51.010;10.366;2023-06-14T04:14:15;3.10;;;1.92;;
14789;SDS011;7486;51.010;10.366;2023-06-14T04:17:00;4.93;;;2.05;;
14789;SDS011;7486;51.010;10.366;2023-06-14T04:19:46;2.45;;;2.10;;
14789;SDS011;7486;51.010;10.366;2023-06-14T04:22:31;3.22;;;2.15;;
14789;SDS011;7486;51.010;10.366;2023-06-14T04:25:17;2.90;;;2.13;;
14789;SDS011;7486;51.010;10.366;2023-06-14T04:28:09;2.17;;;1.88;;
14789;SDS011;7486;51.010;10.366;2023-06-14T04:30:55;3.35;;;2.00;;
14789;SDS011;7486;51.010;10.366;2023-06-14T04:33:41;3.33;;;2.20;;
14789;SDS011;7486;51.010;10.366;2023-06-14T04:36:28;3.10;;;2.05;;
14789;SDS011;7486;51.010;10.366;2023-06-14T04:39:15;4.32;;;2.22;;
14789;SDS011;7486;51.010;10.366;2023-06-14T04:42:01;3.15;;;2.00;;
14789;SDS011;7486;51.010;10.366;2023-06-14T04:44:47;2.20;;;2.00;;
14789;SDS011;7486;51.010;10.366;2023-06-14T04:47:32;3.28;;;2.17;;
14789;SDS011;7486;51.010;10.366;2023-06-14T04:50:18;2.20;;;1.90;;
14789;SDS011;7486;51.010;10.366;2023-06-14T04:53:03;3.60;;;2.20;;
14789;SDS011;7486;51.010;10.366;2023-06-14T04:55:49;2.28;;;2.08;;
14789;SDS011;7486;51.010;10.366;2023-06-14T04:58:37;3.95;;;2.03;;
14789;SDS011;7486;51.010;10.366;2023-06-14T05:01:22;2.70;;;2.20;;
14789;SDS011;7486;51.010;10.366;2023-06-14T05:04:08;2.10;;;1.90;;
14789;SDS011;7486;51.010;10.366;2023-06-14T05:06:54;3.47;;;2.20;;
14789;SDS011;7486;51.010;10.366;2023-06-14T05:09:40;2.25;;;2.05;;
14789;SDS011;7486;51.010;10.366;2023-06-14T05:12:25;2.25;;;2.05;;
14789;SDS011;7486;51.010;10.366;2023-06-14T05:15:11;2.28;;;2.08;;
14789;SDS011;7486;51.010;10.366;2023-06-14T05:17:57;2.70;;;2.25;;
14789;SDS011;7486;51.010;10.366;2023-06-14T05:20:42;2.42;;;2.20;;
14789;SDS011;7486;51.010;10.366;2023-06-14T05:23:27;3.67;;;2.17;;
14789;SDS011;7486;51.010;10.366;2023-06-14T05:26:13;3.03;;;2.30;;
14789;SDS011;7486;51.010;10.366;2023-06-14T05:28:59;3.35;;;2.50;;
14789;SDS011;7486;51.010;10.366;2023-06-14T05:31:44;2.97;;;2.28;;
14789;SDS011;7486;51.010;10.366;2023-06-14T05:34:30;2.70;;;2.40;;
14789;SDS011;7486;51.010;10.366;2023-06-14T05:37:16;3.55;;;2.35;;
14789;SDS011;7486;51.010;10.366;2023-06-14T05:40:02;3.65;;;2.47;;
14789;SDS011;7486;51.010;10.366;2023-06-14T05:42:48;2.50;;;2.30;;
14789;SDS011;7486;51.010;10.366;2023-06-14T05:45:33;2.65;;;2.40;;
14789;SDS011;7486;51.010;10.366;2023-06-14T05:48:19;3.75;;;2.42;;
14789;SDS011;7486;51.010;10.366;2023-06-14T05:51:04;3.88;;;2.38;;
14789;SDS011;7486;51.010;10.366;2023-06-14T05:53:50;2.50;;;2.25;;
14789;SDS011;7486;51.010;10.366;2023-06-14T05:56:35;4.13;;;2.70;;
14789;SDS011;7486;51.010;10.366;2023-06-14T05:59:23;2.65;;;2.45;;
14789;SDS011;7486;51.010;10.366;2023-06-14T06:02:09;2.47;;;2.25;;
14789;SDS011;7486;51.010;10.366;2023-06-14T06:04:55;2.97;;;2.67;;
14789;SDS011;7486;51.010;10.366;2023-06-14T06:07:40;3.30;;;2.70;;
14789;SDS011;7486;51.010;10.366;2023-06-14T06:10:26;2.47;;;2.28;;
14789;SDS011;7486;51.010;10.366;2023-06-14T06:13:12;3.50;;;2.63;;
14789;SDS011;7486;51.010;10.366;2023-06-14T06:15:57;2.80;;;2.60;;
14789;SDS011;7486;51.010;10.366;2023-06-14T06:18:43;2.95;;;2.30;;
14789;SDS011;7486;51.010;10.366;2023-06-14T06:21:30;2.88;;;2.53;;
14789;SDS011;7486;51.010;10.366;2023-06-14T06:24:15;2.33;;;2.13;;
14789;SDS011;7486;51.010;10.366;2023-06-14T06:27:01;2.90;;;2.60;;
14789;SDS011;7486;51.010;10.366;2023-06-14T06:29:46;3.15;;;2.72;;
14789;SDS011;7486;51.010;10.366;2023-06-14T06:32:32;3.03;;;2.80;;
14789;SDS011;7486;51.010;10.366;2023-06-14T06:35:17;4.18;;;2.90;;
14789;SDS011;7486;51.010;10.366;2023-06-14T06:38:02;3.10;;;2.80;;
14789;SDS011;7486;51.010;10.366;2023-06-14T06:40:48;3.13;;;2.83;;
14789;SDS011;7486;51.010;10.366;2023-06-14T06:43:34;3.90;;;3.03;;
14789;SDS011;7486;51.010;10.366;2023-06-14T06:46:20;3.42;;;2.80;;
14789;SDS011;7486;51.010;10.366;2023-06-14T06:49:05;3.03;;;2.83;;
14789;SDS011;7486;51.010;10.366;2023-06-14T06:52:04;3.30;;;2.97;;
14789;SDS011;7486;51.010;10.366;2023-06-14T06:54:51;3.65;;;2.90;;
14789;SDS011;7486;51.010;10.366;2023-06-14T06:57:36;3.22;;;2.75;;
14789;SDS011;7486;51.010;10.366;2023-06-14T07:00:22;6.20;;;3.20;;
14789;SDS011;7486;51.010;10.366;2023-06-14T07:03:09;5.20;;;2.80;;
14789;SDS011;7486;51.010;10.366;2023-06-14T07:05:55;2.70;;;2.50;;
14789;SDS011;7486;51.010;10.366;2023-06-14T07:08:40;3.15;;;2.83;;
14789;SDS011;7486;51.010;10.366;2023-06-14T07:11:26;3.33;;;3.03;;
14789;SDS011;7486;51.010;10.366;2023-06-14T07:14:11;3.67;;;3.38;;
14789;SDS011;7486;51.010;10.366;2023-06-14T07:16:56;6.45;;;2.95;;
14789;SDS011;7486;51.010;10.366;2023-06-14T07:19:42;3.28;;;2.97;;
14789;SDS011;7486;51.010;10.366;2023-06-14T07:22:29;3.17;;;2.88;;
14789;SDS011;7486;51.010;10.366;2023-06-14T07:25:15;5.30;;;2.90;;
14789;SDS011;7486;51.010;10.366;2023-06-14T07:28:01;3.38;;;2.75;;
14789;SDS011;7486;51.010;10.366;2023-06-14T07:30:47;3.00;;;2.80;;
14789;SDS011;7486;51.010;10.366;2023-06-14T07:33:32;3.25;;;2.95;;
14789;SDS011;7486;51.010;10.366;2023-06-14T07:36:18;3.22;;;2.95;;
14789;SDS011;7486;51.010;10.366;2023-06-14T07:39:04;4.53;;;3.05;;
14789;SDS011;7486;51.010;10.366;2023-06-14T07:41:50;3.97;;;3.15;;
14789;SDS011;7486;51.010;10.366;2023-06-14T07:44:35;3.58;;;3.08;;
14789;SDS011;7486;51.010;10.366;2023-06-14T07:47:21;3.55;;;2.85;;
14789;SDS011;7486;51.010;10.366;2023-06-14T07:50:08;4.28;;;3.28;;
14789;SDS011;7486;51.010;10.366;2023-06-14T07:52:55;3.92;;;3.05;;
14789;SDS011;7486;51.010;10.366;2023-06-14T07:55:41;5.95;;;3.10;;
14789;SDS011;7486;51.010;10.366;2023-06-14T07:58:37;3.47;;;2.97;;
14789;SDS011;7486;51.010;10.366;2023-06-14T08:01:23;3.20;;;2.90;;
14789;SDS011;7486;51.010;10.366;2023-06-14T08:04:09;3.80;;;3.38;;
14789;SDS011;7486;51.010;10.366;2023-06-14T08:06:54;3.40;;;3.08;;
14789;SDS011;7486;51.010;10.366;2023-06-14T08:09:40;4.35;;;2.80;;
14789;SDS011;7486;51.010;10.366;2023-06-14T08:12:25;4.15;;;2.88;;
14789;SDS011;7486;51.010;10.366;2023-06-14T08:15:11;3.30;;;3.00;;
14789;SDS011;7486;51.010;10.366;2023-06-14T08:17:58;4.88;;;3.13;;
14789;SDS011;7486;51.010;10.366;2023-06-14T08:20:44;3.20;;;2.90;;
14789;SDS011;7486;51.010;10.366;2023-06-14T08:23:29;3.65;;;2.90;;
14789;SDS011;7486;51.010;10.366;2023-06-14T08:26:15;5.10;;;3.08;;
14789;SDS011;7486;51.010;10.366;2023-06-14T08:29:00;3.40;;;3.10;;
14789;SDS011;7486;51.010;10.366;2023-06-14T08:31:46;4.53;;;3.20;;
14789;SDS011;7486;51.010;10.366;2023-06-14T08:34:32;3.15;;;2.92;;
14789;SDS011;7486;51.010;10.366;2023-06-14T08:37:17;3.50;;;3.10;;
14789;SDS011;7486;51.010;10.366;2023-06-14T08:40:02;3.92;;;3.15;;
14789;SDS011;7486;51.010;10.366;2023-06-14T08:42:51;3.58;;;3.03;;
14789;SDS011;7486;51.010;10.366;2023-06-14T08:45:38;4.00;;;3.20;;
14789;SDS011;7486;51.010;10.366;2023-06-14T08:48:26;3.30;;;2.78;;
14789;SDS011;7486;51.010;10.366;2023-06-14T08:51:11;3.38;;;2.70;;
14789;SDS011;7486;51.010;10.366;2023-06-14T08:53:58;3.33;;;2.83;;
14789;SDS011;7486;51.010;10.366;2023-06-14T08:56:44;3.17;;;2.88;;
14789;SDS011;7486;51.010;10.366;2023-06-14T08:59:30;3.00;;;2.70;;
14789;SDS011;7486;51.010;10.366;2023-06-14T09:02:16;3.75;;;2.90;;
14789;SDS011;7486;51.010;10.366;2023-06-14T09:05:01;4.43;;;3.00;;
14789;SDS011;7486;51.010;10.366;2023-06-14T09:07:47;3.15;;;2.85;;
14789;SDS011;7486;51.010;10.366;2023-06-14T09:10:32;3.60;;;2.90;;
14789;SDS011;7486;51.010;10.366;2023-06-14T09:13:18;4.45;;;3.00;;
14789;SDS011;7486;51.010;10.366;2023-06-14T09:16:04;4.93;;;2.70;;
14789;SDS011;7486;51.010;10.366;2023-06-14T09:18:51;3.25;;;2.95;;
14789;SDS011;7486;51.010;10.366;2023-06-14T09:21:36;3.10;;;2.80;;
14789;SDS011;7486;51.010;10.366;2023-06-14T09:24:23;3.40;;;3.10;;
14789;SDS011;7486;51.010;10.366;2023-06-14T09:27:14;3.22;;;2.88;;
14789;SDS011;7486;51.010;10.366;2023-06-14T09:30:01;3.38;;;2.72;;
14789;SDS011;7486;51.010;10.366;2023-06-14T09:32:50;3.70;;;2.92;;
14789;SDS011;7486;51.010;10.366;2023-06-14T09:35:36;2.90;;;2.63;;
14789;SDS011;7486;51.010;10.366;2023-06-14T09:38:21;4.95;;;3.10;;
14789;SDS011;7486;51.010;10.366;2023-06-14T09:41:07;3.47;;;2.60;;
14789;SDS011;7486;51.010;10.366;2023-06-14T09:43:52;3.38;;;3.08;;
14789;SDS011;7486;51.010;10.366;2023-06-14T09:46:38;3.60;;;2.90;;
14789;SDS011;7486;51.010;10.366;2023-06-14T09:49:24;3.30;;;3.00;;
14789;SDS011;7486;51.010;10.366;2023-06-14T09:52:10;3.42;;;2.85;;
14789;SDS011;7486;51.010;10.366;2023-06-14T09:54:59;4.78;;;2.60;;
14789;SDS011;7486;51.010;10.366;2023-06-14T09:57:45;3.10;;;2.90;;
14789;SDS011;7486;51.010;10.366;2023-06-14T10:00:33;3.42;;;2.72;;
14789;SDS011;7486;51.010;10.366;2023-06-14T10:03:27;3.80;;;3.10;;
14789;SDS011;7486;51.010;10.366;2023-06-14T10:06:25;2.72;;;2.53;;
14789;SDS011;7486;51.010;10.366;2023-06-14T10:09:11;2.78;;;2.58;;
14789;SDS011;7486;51.010;10.366;2023-06-14T10:11:57;3.47;;;2.70;;
14789;SDS011;7486;51.010;10.366;2023-06-14T10:14:42;4.78;;;2.90;;
14789;SDS011;7486;51.010;10.366;2023-06-14T10:20:30;2.92;;;2.65;;
14789;SDS011;7486;51.010;10.366;2023-06-14T10:23:22;3.33;;;2.72;;
14789;SDS011;7486;51.010;10.366;2023-06-14T10:26:13;3.17;;;2.70;;
14789;SDS011;7486;51.010;10.366;2023-06-14T10:29:07;2.60;;;2.40;;
14789;SDS011;7486;51.010;10.366;2023-06-14T10:31:55;3.95;;;2.47;;
14789;SDS011;7486;51.010;10.366;2023-06-14T10:34:42;2.53;;;2.33;;
14789;SDS011;7486;51.010;10.366;2023-06-14T10:37:27;2.88;;;2.50;;
14789;SDS011;7486;51.010;10.366;2023-06-14T10:40:29;2.90;;;2.42;;
14789;SDS011;7486;51.010;10.366;2023-06-14T10:43:22;3.60;;;2.70;;
14789;SDS011;7486;51.010;10.366;2023-06-14T10:48:57;4.60;;;2.58;;
14789;SDS011;7486;51.010;10.366;2023-06-14T10:51:43;3.78;;;2.60;;
14789;SDS011;7486;51.010;10.366;2023-06-14T10:54:30;3.00;;;2.25;;
14789;SDS011;7486;51.010;10.366;2023-06-14T10:57:15;2.42;;;2.22;;
14789;SDS011;7486;51.010;10.366;2023-06-14T11:00:00;2.83;;;2.53;;
14789;SDS011;7486;51.010;10.366;2023-06-14T11:05:51;2.63;;;2.42;;
14789;SDS011;7486;51.010;10.366;2023-06-14T11:08:40;3.08;;;2.38;;
14789;SDS011;7486;51.010;10.366;2023-06-14T11:11:32;2.60;;;2.30;;
14789;SDS011;7486;51.010;10.366;2023-06-14T11:14:18;2.58;;;2.38;;
14789;SDS011;7486;51.010;10.366;2023-06-14T11:17:04;2.60;;;2.40;;
14789;SDS011;7486;51.010;10.366;2023-06-14T11:19:50;3.08;;;2.63;;
14789;SDS011;7486;51.010;10.366;2023-06-14T11:22:40;3.00;;;2.25;;
14789;SDS011;7486;51.010;10.366;2023-06-14T11:25:27;3.42;;;2.40;;
14789;SDS011;7486;51.010;10.366;2023-06-14T11:28:13;3.72;;;2.53;;
14789;SDS011;7486;51.010;10.366;2023-06-14T11:31:02;4.72;;;2.63;;
14789;SDS011;7486;51.010;10.366;2023-06-14T11:33:49;2.63;;;2.42;;
14789;SDS011;7486;51.010;10.366;2023-06-14T11:36:35;2.40;;;2.20;;
14789;SDS011;7486;51.010;10.366;2023-06-14T11:39:23;3.03;;;2.38;;
14789;SDS011;7486;51.010;10.366;2023-06-14T11:42:13;3.63;;;2.20;;
14789;SDS011;7486;51.010;10.366;2023-06-14T11:45:02;2.40;;;2.20;;
14789;SDS011;7486;51.010;10.366;2023-06-14T11:47:54;2.95;;;2.65;;
14789;SDS011;7486;51.010;10.366;2023-06-14T11:50:40;3.00;;;2.25;;
14789;SDS011;7486;51.010;10.366;2023-06-14T11:53:25;2.45;;;2.25;;
14789;SDS011;7486;51.010;10.366;2023-06-14T11:56:11;3.10;;;2.20;;
14789;SDS011;7486;51.010;10.366;2023-06-14T11:58:56;3.13;;;2.13;;
14789;SDS011;7486;51.010;10.366;2023-06-14T12:01:42;3.05;;;2.63;;
14789;SDS011;7486;51.010;10.366;2023-06-14T12:04:29;2.40;;;2.20;;
14789;SDS011;7486;51.010;10.366;2023-06-14T12:07:15;2.50;;;2.30;;
14789;SDS011;7486;51.010;10.366;2023-06-14T12:12:46;1.98;;;1.80;;
14789;SDS011;7486;51.010;10.366;2023-06-14T12:15:32;2.10;;;1.90;;
14789;SDS011;7486;51.010;10.366;2023-06-14T12:18:17;2.22;;;1.92;;
14789;SDS011;7486;51.010;10.366;2023-06-14T12:21:07;2.33;;;2.13;;
14789;SDS011;7486;51.010;10.366;2023-06-14T12:23:53;3.08;;;2.22;;
14789;SDS011;7486;51.010;10.366;2023-06-14T12:26:38;2.30;;;2.10;;
14789;SDS011;7486;51.010;10.366;2023-06-14T12:29:25;2.42;;;2.13;;
14789;SDS011;7486;51.010;10.366;2023-06-14T12:32:11;2.33;;;2.13;;
14789;SDS011;7486;51.010;10.366;2023-06-14T12:34:57;4.30;;;2.50;;
14789;SDS011;7486;51.010;10.366;2023-06-14T12:37:42;2.63;;;2.30;;
14789;SDS011;7486;51.010;10.366;2023-06-14T12:40:28;2.92;;;2.17;;
14789;SDS011;7486;51.010;10.366;2023-06-14T12:43:13;3.83;;;2.10;;
14789;SDS011;7486;51.010;10.366;2023-06-14T12:45:59;4.32;;;2.42;;
14789;SDS011;7486;51.010;10.366;2023-06-14T12:48:45;3.38;;;2.25;;
14789;SDS011;7486;51.010;10.366;2023-06-14T12:51:31;5.07;;;1.98;;
14789;SDS011;7486;51.010;10.366;2023-06-14T12:54:16;2.10;;;1.90;;
14789;SDS011;7486;51.010;10.366;2023-06-14T12:57:16;2.13;;;1.90;;
14789;SDS011;7486;51.010;10.366;2023-06-14T13:00:02;2.88;;;1.90;;
14789;SDS011;7486;51.010;10.366;2023-06-14T13:02:47;2.05;;;1.77;;
14789;SDS011;7486;51.010;10.366;2023-06-14T13:05:33;3.47;;;1.90;;
14789;SDS011;7486;51.010;10.366;2023-06-14T13:08:18;2.38;;;1.80;;
14789;SDS011;7486;51.010;10.366;2023-06-14T13:11:06;2.15;;;1.95;;
14789;SDS011;7486;51.010;10.366;2023-06-14T13:13:52;1.95;;;1.85;;
14789;SDS011;7486;51.010;10.366;2023-06-14T13:16:37;2.25;;;2.03;;
14789;SDS011;7486;51.010;10.366;2023-06-14T13:19:22;2.30;;;1.80;;
14789;SDS011;7486;51.010;10.366;2023-06-14T13:22:08;2.42;;;1.88;;
14789;SDS011;7486;51.010;10.366;2023-06-14T13:24:53;1.85;;;1.75;;
14789;SDS011;7486;51.010;10.366;2023-06-14T13:27:39;3.03;;;2.10;;
14789;SDS011;7486;51.010;10.366;2023-06-14T13:30:25;6.22;;;2.30;;
14789;SDS011;7486;51.010;10.366;2023-06-14T13:33:11;2.40;;;2.20;;
14789;SDS011;7486;51.010;10.366;2023-06-14T13:35:58;3.13;;;2.10;;
14789;SDS011;7486;51.010;10.366;2023-06-14T13:38:44;2.10;;;1.90;;
14789;SDS011;7486;51.010;10.366;2023-06-14T13:41:33;2.03;;;1.90;;
14789;SDS011;7486;51.010;10.366;2023-06-14T13:44:19;2.40;;;2.10;;
14789;SDS011;7486;51.010;10.366;2023-06-14T13:47:04;2.63;;;2.03;;
14789;SDS011;7486;51.010;10.366;2023-06-14T13:49:50;3.40;;;2.30;;
14789;SDS011;7486;51.010;10.366;2023-06-14T13:52:36;2.60;;;2.00;;
14789;SDS011;7486;51.010;10.366;2023-06-14T13:55:21;3.05;;;1.80;;
14789;SDS011;7486;51.010;10.366;2023-06-14T13:58:07;2.50;;;2.30;;
14789;SDS011;7486;51.010;10.366;2023-06-14T14:00:52;2.28;;;2.08;;
14789;SDS011;7486;51.010;10.366;2023-06-14T14:03:38;2.22;;;2.00;;
14789;SDS011;7486;51.010;10.366;2023-06-14T14:06:23;4.03;;;2.30;;
14789;SDS011;7486;51.010;10.366;2023-06-14T14:09:09;2.35;;;2.15;;
14789;SDS011;7486;51.010;10.366;2023-06-14T14:11:54;2.30;;;1.80;;
14789;SDS011;7486;51.010;10.366;2023-06-14T14:14:40;2.67;;;2.10;;
14789;SDS011;7486;51.010;10.366;2023-06-14T14:17:26;5.05;;;2.40;;
14789;SDS011;7486;51.010;10.366;2023-06-14T14:20:12;2.30;;;2.10;;
14789;SDS011;7486;51.010;10.366;2023-06-14T14:22:58;2.30;;;1.80;;
14789;SDS011;7486;51.010;10.366;2023-06-14T14:25:44;2.30;;;1.98;;
14789;SDS011;7486;51.010;10.366;2023-06-14T14:28:30;2.63;;;2.00;;
14789;SDS011;7486;51.010;10.366;2023-06-14T14:31:17;3.75;;;2.22;;
14789;SDS011;7486;51.010;10.366;2023-06-14T14:34:02;2.30;;;2.10;;
14789;SDS011;7486;51.010;10.366;2023-06-14T14:36:50;2.08;;;1.80;;
14789;SDS011;7486;51.010;10.366;2023-06-14T14:39:36;3.55;;;1.90;;
14789;SDS011;7486;51.010;10.366;2023-06-14T14:42:22;2.00;;;1.80;;
14789;SDS011;7486;51.010;10.366;2023-06-14T14:45:07;2.03;;;1.63;;
14789;SDS011;7486;51.010;10.366;2023-06-14T14:47:53;2.45;;;1.83;;
14789;SDS011;7486;51.010;10.366;2023-06-14T14:50:40;3.10;;;1.67;;
14789;SDS011;7486;51.010;10.366;2023-06-14T14:53:27;1.70;;;1.60;;
14789;SDS011;7486;51.010;10.366;2023-06-14T14:56:13;2.63;;;1.70;;
14789;SDS011;7486;51.010;10.366;2023-06-14T14:58:59;1.83;;;1.73;;
14789;SDS011;7486;51.010;10.366;2023-06-14T15:01:44;1.77;;;1.63;;
14789;SDS011;7486;51.010;10.366;2023-06-14T15:04:30;4.13;;;1.77;;
14789;SDS011;7486;51.010;10.366;2023-06-14T15:07:16;2.30;;;1.65;;
14789;SDS011;7486;51.010;10.366;2023-06-14T15:10:05;1.77;;;1.67;;
14789;SDS011;7486;51.010;10.366;2023-06-14T15:12:54;1.88;;;1.77;;
14789;SDS011;7486;51.010;10.366;2023-06-14T15:15:39;1.90;;;1.70;;
14789;SDS011;7486;51.010;10.366;2023-06-14T15:18:24;4.00;;;1.88;;
14789;SDS011;7486;51.010;10.366;2023-06-14T15:21:10;2.65;;;1.42;;
14789;SDS011;7486;51.010;10.366;2023-06-14T15:23:55;1.70;;;1.60;;
14789;SDS011;7486;51.010;10.366;2023-06-14T15:26:40;1.80;;;1.50;;
14789;SDS011;7486;51.010;10.366;2023-06-14T15:29:26;1.25;;;1.15;;
14789;SDS011;7486;51.010;10.366;2023-06-14T15:32:12;1.65;;;1.30;;
14789;SDS011;7486;51.010;10.366;2023-06-14T15:34:57;2.67;;;1.48;;
14789;SDS011;7486;51.010;10.366;2023-06-14T15:37:43;1.70;;;1.60;;
14789;SDS011;7486;51.010;10.366;2023-06-14T15:40:28;2.00;;;1.70;;
14789;SDS011;7486;51.010;10.366;2023-06-14T15:43:13;1.60;;;1.50;;
14789;SDS011;7486;51.010;10.366;2023-06-14T15:45:59;1.63;;;1.52;;
14789;SDS011;7486;51.010;10.366;2023-06-14T15:48:44;2.28;;;1.55;;
14789;SDS011;7486;51.010;10.366;2023-06-14T15:51:30;1.58;;;1.48;;
14789;SDS011;7486;51.010;10.366;2023-06-14T15:54:16;2.40;;;1.60;;
14789;SDS011;7486;51.010;10.366;2023-06-14T15:57:01;1.30;;;1.20;;
14789;SDS011;7486;51.010;10.366;2023-06-14T15:59:47;2.03;;;1.50;;
14789;SDS011;7486;51.010;10.366;2023-06-14T16:02:33;2.83;;;1.38;;
14789;SDS011;7486;51.010;10.366;2023-06-14T16:05:18;1.67;;;1.58;;
14789;SDS011;7486;51.010;10.366;2023-06-14T16:08:05;1.40;;;1.30;;
14789;SDS011;7486;51.010;10.366;2023-06-14T16:10:51;2.28;;;1.40;;
14789;SDS011;7486;51.010;10.366;2023-06-14T16:13:36;1.65;;;1.45;;
14789;SDS011;7486;51.010;10.366;2023-06-14T16:16:22;1.60;;;1.50;;
14789;SDS011;7486;51.010;10.366;2023-06-14T16:19:08;1.15;;;1.15;;
14789;SDS011;7486;51.010;10.366;2023-06-14T16:21:54;1.42;;;1.33;;
14789;SDS011;7486;51.010;10.366;2023-06-14T16:24:43;2.00;;;1.70;;
14789;SDS011;7486;51.010;10.366;2023-06-14T16:27:28;1.90;;;1.70;;
14789;SDS011;7486;51.010;10.366;2023-06-14T16:30:15;4.18;;;1.90;;
14789;SDS011;7486;51.010;10.366;2023-06-14T16:33:01;3.03;;;1.80;;
14789;SDS011;7486;51.010;10.366;2023-06-14T16:35:46;2.38;;;1.85;;
14789;SDS011;7486;51.010;10.366;2023-06-14T16:38:31;3.38;;;1.83;;
14789;SDS011;7486;51.010;10.366;2023-06-14T16:41:17;3.67;;;2.55;;
14789;SDS011;7486;51.010;10.366;2023-06-14T16:44:03;3.33;;;2.10;;
14789;SDS011;7486;51.010;10.366;2023-06-14T16:46:48;1.88;;;1.77;;
14789;SDS011;7486;51.010;10.366;2023-06-14T16:49:34;2.00;;;1.83;;
14789;SDS011;7486;51.010;10.366;2023-06-14T16:52:21;3.13;;;2.17;;
14789;SDS011;7486;51.010;10.366;2023-06-14T16:55:06;3.92;;;2.10;;
14789;SDS011;7486;51.010;10.366;2023-06-14T16:57:52;2.58;;;2.13;;